sensor_id;sensor_type;location;lat;lon;timestamp;P1;durP1;ratioP1;P2;durP2;ratioP2
9739;SDS011;4909;42.680;26.324;2022-10-22T00:00:30;6.43;;;1.73;;
9739;SDS011;4909;42.680;26.324;2022-10-22T00:02:57;6.67;;;1.77;;
9739;SDS011;4909;42.680;26.324;2022-10-22T00:05:25;6.20;;;1.70;;
9739;SDS011;4909;42.680;26.324;2022-10-22T00:07:52;5.10;;;1.67;;
9739;SDS011;4909;42.680;26.324;2022-10-22T00:10:18;5.97;;;1.60;;
9739;SDS011;4909;42.680;26.324;2022-10-22T00:12:45;7.23;;;1.83;;
9739;SDS011;4909;42.680;26.324;2022-10-22T00:15:12;8.50;;;2.20;;
9739;SDS011;4909;42.680;26.324;2022-10-22T00:17:39;5.93;;;1.67;;
9739;SDS011;4909;42.680;26.324;2022-10-22T00:20:06;11.57;;;2.67;;
9739;SDS011;4909;42.680;26.324;2022-10-22T00:22:35;5.47;;;1.50;;
9739;SDS011;4909;42.680;26.324;2022-10-22T00:25:02;8.37;;;2.07;;
9739;SDS011;4909;42.680;26.324;2022-10-22T00:27:29;9.03;;;2.27;;
9739;SDS011;4909;42.680;26.324;2022-10-22T00:29:56;6.53;;;1.90;;
9739;SDS011;4909;42.680;26.324;2022-10-22T00:32:22;4.83;;;1.43;;
9739;SDS011;4909;42.680;26.324;2022-10-22T00:34:49;8.13;;;1.90;;
9739;SDS011;4909;42.680;26.324;2022-10-22T00:37:16;8.13;;;2.03;;
9739;SDS011;4909;42.680;26.324;2022-10-22T00:39:44;4.53;;;1.37;;
9739;SDS011;4909;42.680;26.324;2022-10-22T00:42:11;6.53;;;1.70;;
9739;SDS011;4909;42.680;26.324;2022-10-22T00:47:42;8.87;;;1.97;;
9739;SDS011;4909;42.680;26.324;2022-10-22T00:50:12;6.10;;;1.73;;
9739;SDS011;4909;42.680;26.324;2022-10-22T00:52:41;6.03;;;1.63;;
9739;SDS011;4909;42.680;26.324;2022-10-22T00:55:10;6.33;;;1.73;;
9739;SDS011;4909;42.680;26.324;2022-10-22T00:57:38;5.63;;;1.60;;
9739;SDS011;4909;42.680;26.324;2022-10-22T01:00:07;8.27;;;2.00;;
9739;SDS011;4909;42.680;26.324;2022-10-22T01:02:34;6.90;;;1.73;;
9739;SDS011;4909;42.680;26.324;2022-10-22T01:05:01;6.27;;;1.67;;
9739;SDS011;4909;42.680;26.324;2022-10-22T01:07:29;8.20;;;2.10;;
9739;SDS011;4909;42.680;26.324;2022-10-22T01:09:59;6.47;;;1.70;;
9739;SDS011;4909;42.680;26.324;2022-10-22T01:12:38;7.27;;;1.80;;
9739;SDS011;4909;42.680;26.324;2022-10-22T01:15:15;7.00;;;1.80;;
9739;SDS011;4909;42.680;26.324;2022-10-22T01:17:50;9.03;;;2.13;;
9739;SDS011;4909;42.680;26.324;2022-10-22T01:20:29;6.93;;;1.80;;
9739;SDS011;4909;42.680;26.324;2022-10-22T01:23:13;5.40;;;1.43;;
9739;SDS011;4909;42.680;26.324;2022-10-22T01:25:52;7.60;;;1.97;;
9739;SDS011;4909;42.680;26.324;2022-10-22T01:28:43;8.47;;;2.10;;
9739;SDS011;4909;42.680;26.324;2022-10-22T01:31:22;7.73;;;1.87;;
9739;SDS011;4909;42.680;26.324;2022-10-22T01:33:50;4.67;;;1.47;;
9739;SDS011;4909;42.680;26.324;2022-10-22T01:36:20;6.33;;;1.70;;
9739;SDS011;4909;42.680;26.324;2022-10-22T01:38:47;6.20;;;1.63;;
9739;SDS011;4909;42.680;26.324;2022-10-22T01:41:16;6.50;;;1.70;;
9739;SDS011;4909;42.680;26.324;2022-10-22T01:43:45;9.23;;;2.10;;
9739;SDS011;4909;42.680;26.324;2022-10-22T01:46:11;5.60;;;1.47;;
9739;SDS011;4909;42.680;26.324;2022-10-22T01:48:43;5.10;;;1.40;;
9739;SDS011;4909;42.680;26.324;2022-10-22T01:51:29;5.40;;;1.43;;
9739;SDS011;4909;42.680;26.324;2022-10-22T01:54:15;3.40;;;1.23;;
9739;SDS011;4909;42.680;26.324;2022-10-22T01:56:53;5.43;;;1.50;;
9739;SDS011;4909;42.680;26.324;2022-10-22T01:59:31;7.47;;;2.10;;
9739;SDS011;4909;42.680;26.324;2022-10-22T02:02:08;6.50;;;1.63;;
9739;SDS011;4909;42.680;26.324;2022-10-22T02:04:43;5.47;;;1.57;;
9739;SDS011;4909;42.680;26.324;2022-10-22T02:07:16;4.53;;;1.37;;
9739;SDS011;4909;42.680;26.324;2022-10-22T02:09:46;5.57;;;1.60;;
9739;SDS011;4909;42.680;26.324;2022-10-22T02:12:17;4.23;;;1.47;;
9739;SDS011;4909;42.680;26.324;2022-10-22T02:14:48;8.83;;;2.17;;
9739;SDS011;4909;42.680;26.324;2022-10-22T02:17:17;7.63;;;1.80;;
9739;SDS011;4909;42.680;26.324;2022-10-22T02:19:47;6.00;;;1.63;;
9739;SDS011;4909;42.680;26.324;2022-10-22T02:22:18;5.57;;;1.53;;
9739;SDS011;4909;42.680;26.324;2022-10-22T02:24:45;4.67;;;1.47;;
9739;SDS011;4909;42.680;26.324;2022-10-22T02:27:15;5.87;;;1.60;;
9739;SDS011;4909;42.680;26.324;2022-10-22T02:29:48;1.67;;;1.10;;
9739;SDS011;4909;42.680;26.324;2022-10-22T02:32:21;4.57;;;1.30;;
9739;SDS011;4909;42.680;26.324;2022-10-22T02:34:50;6.90;;;1.87;;
9739;SDS011;4909;42.680;26.324;2022-10-22T02:37:18;7.27;;;1.80;;
9739;SDS011;4909;42.680;26.324;2022-10-22T02:39:47;4.50;;;1.33;;
9739;SDS011;4909;42.680;26.324;2022-10-22T02:42:14;6.93;;;1.97;;
9739;SDS011;4909;42.680;26.324;2022-10-22T02:44:42;7.10;;;1.83;;
9739;SDS011;4909;42.680;26.324;2022-10-22T02:47:10;8.53;;;1.97;;
9739;SDS011;4909;42.680;26.324;2022-10-22T02:49:37;11.37;;;2.63;;
9739;SDS011;4909;42.680;26.324;2022-10-22T02:52:04;8.27;;;2.10;;
9739;SDS011;4909;42.680;26.324;2022-10-22T02:54:31;6.97;;;1.73;;
9739;SDS011;4909;42.680;26.324;2022-10-22T02:56:57;5.03;;;1.40;;
9739;SDS011;4909;42.680;26.324;2022-10-22T02:59:24;4.60;;;1.40;;
9739;SDS011;4909;42.680;26.324;2022-10-22T03:01:51;5.63;;;1.57;;
9739;SDS011;4909;42.680;26.324;2022-10-22T03:04:19;7.30;;;1.73;;
9739;SDS011;4909;42.680;26.324;2022-10-22T03:06:46;5.83;;;1.73;;
9739;SDS011;4909;42.680;26.324;2022-10-22T03:09:13;7.63;;;1.90;;
9739;SDS011;4909;42.680;26.324;2022-10-22T03:11:40;7.40;;;1.87;;
9739;SDS011;4909;42.680;26.324;2022-10-22T03:14:07;4.00;;;1.37;;
9739;SDS011;4909;42.680;26.324;2022-10-22T03:16:33;7.20;;;1.83;;
9739;SDS011;4909;42.680;26.324;2022-10-22T03:19:00;3.00;;;1.13;;
9739;SDS011;4909;42.680;26.324;2022-10-22T03:21:30;5.70;;;1.60;;
9739;SDS011;4909;42.680;26.324;2022-10-22T03:24:00;5.00;;;1.40;;
9739;SDS011;4909;42.680;26.324;2022-10-22T03:26:30;7.97;;;1.87;;
9739;SDS011;4909;42.680;26.324;2022-10-22T03:28:58;4.70;;;1.33;;
9739;SDS011;4909;42.680;26.324;2022-10-22T03:31:26;8.73;;;2.13;;
9739;SDS011;4909;42.680;26.324;2022-10-22T03:33:53;7.13;;;1.80;;
9739;SDS011;4909;42.680;26.324;2022-10-22T03:36:19;5.17;;;1.47;;
9739;SDS011;4909;42.680;26.324;2022-10-22T03:38:48;11.00;;;2.53;;
9739;SDS011;4909;42.680;26.324;2022-10-22T03:41:15;6.50;;;2.07;;
9739;SDS011;4909;42.680;26.324;2022-10-22T03:43:42;4.47;;;1.37;;
9739;SDS011;4909;42.680;26.324;2022-10-22T03:46:13;5.47;;;1.57;;
9739;SDS011;4909;42.680;26.324;2022-10-22T03:48:40;7.40;;;1.97;;
9739;SDS011;4909;42.680;26.324;2022-10-22T03:51:07;4.80;;;1.40;;
9739;SDS011;4909;42.680;26.324;2022-10-22T03:53:34;7.07;;;1.83;;
9739;SDS011;4909;42.680;26.324;2022-10-22T03:56:04;6.70;;;1.83;;
9739;SDS011;4909;42.680;26.324;2022-10-22T03:58:33;8.73;;;2.23;;
9739;SDS011;4909;42.680;26.324;2022-10-22T04:01:02;6.80;;;1.87;;
9739;SDS011;4909;42.680;26.324;2022-10-22T04:03:30;8.23;;;2.10;;
9739;SDS011;4909;42.680;26.324;2022-10-22T04:05:59;6.67;;;1.73;;
9739;SDS011;4909;42.680;26.324;2022-10-22T04:08:27;6.80;;;1.83;;
9739;SDS011;4909;42.680;26.324;2022-10-22T04:10:53;7.13;;;1.83;;
9739;SDS011;4909;42.680;26.324;2022-10-22T04:13:22;8.73;;;2.20;;
9739;SDS011;4909;42.680;26.324;2022-10-22T04:15:48;6.53;;;1.77;;
9739;SDS011;4909;42.680;26.324;2022-10-22T04:18:16;5.43;;;1.50;;
9739;SDS011;4909;42.680;26.324;2022-10-22T04:20:42;6.90;;;1.87;;
9739;SDS011;4909;42.680;26.324;2022-10-22T04:23:10;6.50;;;1.73;;
9739;SDS011;4909;42.680;26.324;2022-10-22T04:25:37;5.93;;;1.70;;
9739;SDS011;4909;42.680;26.324;2022-10-22T04:28:04;4.93;;;1.40;;
9739;SDS011;4909;42.680;26.324;2022-10-22T04:30:33;9.47;;;2.43;;
9739;SDS011;4909;42.680;26.324;2022-10-22T04:33:00;5.30;;;1.43;;
9739;SDS011;4909;42.680;26.324;2022-10-22T04:35:27;2.63;;;1.03;;
9739;SDS011;4909;42.680;26.324;2022-10-22T04:37:54;5.83;;;1.67;;
9739;SDS011;4909;42.680;26.324;2022-10-22T04:40:21;11.33;;;2.57;;
9739;SDS011;4909;42.680;26.324;2022-10-22T04:42:48;3.50;;;1.23;;
9739;SDS011;4909;42.680;26.324;2022-10-22T04:45:15;6.63;;;1.77;;
9739;SDS011;4909;42.680;26.324;2022-10-22T04:47:43;6.40;;;1.77;;
9739;SDS011;4909;42.680;26.324;2022-10-22T04:50:10;5.37;;;1.67;;
9739;SDS011;4909;42.680;26.324;2022-10-22T04:52:37;7.20;;;1.93;;
9739;SDS011;4909;42.680;26.324;2022-10-22T04:55:04;4.53;;;1.40;;
9739;SDS011;4909;42.680;26.324;2022-10-22T04:57:31;6.67;;;1.93;;
9739;SDS011;4909;42.680;26.324;2022-10-22T04:59:58;5.50;;;1.57;;
9739;SDS011;4909;42.680;26.324;2022-10-22T05:02:25;5.00;;;1.53;;
9739;SDS011;4909;42.680;26.324;2022-10-22T05:04:53;5.87;;;1.77;;
9739;SDS011;4909;42.680;26.324;2022-10-22T05:07:20;8.07;;;2.07;;
9739;SDS011;4909;42.680;26.324;2022-10-22T05:09:47;10.57;;;2.47;;
9739;SDS011;4909;42.680;26.324;2022-10-22T05:12:14;7.60;;;2.00;;
9739;SDS011;4909;42.680;26.324;2022-10-22T05:14:41;9.13;;;2.27;;
9739;SDS011;4909;42.680;26.324;2022-10-22T05:17:08;8.93;;;2.30;;
9739;SDS011;4909;42.680;26.324;2022-10-22T05:19:35;9.53;;;2.37;;
9739;SDS011;4909;42.680;26.324;2022-10-22T05:22:03;5.30;;;1.53;;
9739;SDS011;4909;42.680;26.324;2022-10-22T05:24:31;5.23;;;1.50;;
9739;SDS011;4909;42.680;26.324;2022-10-22T05:27:00;5.77;;;1.73;;
9739;SDS011;4909;42.680;26.324;2022-10-22T05:29:28;4.27;;;1.37;;
9739;SDS011;4909;42.680;26.324;2022-10-22T05:31:54;6.03;;;1.70;;
9739;SDS011;4909;42.680;26.324;2022-10-22T05:34:21;3.43;;;1.20;;
9739;SDS011;4909;42.680;26.324;2022-10-22T05:36:48;6.77;;;2.00;;
9739;SDS011;4909;42.680;26.324;2022-10-22T05:39:16;7.87;;;2.30;;
9739;SDS011;4909;42.680;26.324;2022-10-22T05:41:43;8.87;;;2.40;;
9739;SDS011;4909;42.680;26.324;2022-10-22T05:44:10;8.97;;;2.27;;
9739;SDS011;4909;42.680;26.324;2022-10-22T05:46:38;7.83;;;2.07;;
9739;SDS011;4909;42.680;26.324;2022-10-22T05:49:05;6.83;;;1.97;;
9739;SDS011;4909;42.680;26.324;2022-10-22T05:51:33;7.33;;;2.07;;
9739;SDS011;4909;42.680;26.324;2022-10-22T05:54:02;6.07;;;1.83;;
9739;SDS011;4909;42.680;26.324;2022-10-22T05:56:32;8.33;;;2.37;;
9739;SDS011;4909;42.680;26.324;2022-10-22T05:59:00;6.30;;;1.77;;
9739;SDS011;4909;42.680;26.324;2022-10-22T06:01:29;7.93;;;2.00;;
9739;SDS011;4909;42.680;26.324;2022-10-22T06:03:57;7.20;;;2.13;;
9739;SDS011;4909;42.680;26.324;2022-10-22T06:06:27;3.80;;;1.43;;
9739;SDS011;4909;42.680;26.324;2022-10-22T06:08:59;3.80;;;1.47;;
9739;SDS011;4909;42.680;26.324;2022-10-22T06:11:27;7.47;;;2.37;;
9739;SDS011;4909;42.680;26.324;2022-10-22T06:13:55;4.53;;;1.47;;
9739;SDS011;4909;42.680;26.324;2022-10-22T06:16:22;6.77;;;2.00;;
9739;SDS011;4909;42.680;26.324;2022-10-22T06:18:49;9.57;;;2.57;;
9739;SDS011;4909;42.680;26.324;2022-10-22T06:21:16;7.20;;;2.00;;
9739;SDS011;4909;42.680;26.324;2022-10-22T06:23:42;7.57;;;2.33;;
9739;SDS011;4909;42.680;26.324;2022-10-22T06:26:09;5.67;;;2.03;;
9739;SDS011;4909;42.680;26.324;2022-10-22T06:28:36;8.07;;;2.43;;
9739;SDS011;4909;42.680;26.324;2022-10-22T06:31:05;8.60;;;2.67;;
9739;SDS011;4909;42.680;26.324;2022-10-22T06:33:33;7.37;;;2.47;;
9739;SDS011;4909;42.680;26.324;2022-10-22T06:36:07;7.27;;;2.50;;
9739;SDS011;4909;42.680;26.324;2022-10-22T06:38:35;8.90;;;3.13;;
9739;SDS011;4909;42.680;26.324;2022-10-22T06:41:02;7.47;;;3.47;;
9739;SDS011;4909;42.680;26.324;2022-10-22T06:43:30;7.90;;;4.50;;
9739;SDS011;4909;42.680;26.324;2022-10-22T06:46:00;8.07;;;6.43;;
9739;SDS011;4909;42.680;26.324;2022-10-22T06:48:29;12.30;;;10.17;;
9739;SDS011;4909;42.680;26.324;2022-10-22T06:50:59;15.47;;;14.27;;
9739;SDS011;4909;42.680;26.324;2022-10-22T06:53:27;19.53;;;18.10;;
9739;SDS011;4909;42.680;26.324;2022-10-22T06:55:54;30.13;;;28.40;;
9739;SDS011;4909;42.680;26.324;2022-10-22T06:58:20;45.93;;;44.00;;
9739;SDS011;4909;42.680;26.324;2022-10-22T07:00:47;52.47;;;49.50;;
9739;SDS011;4909;42.680;26.324;2022-10-22T07:03:14;52.20;;;49.70;;
9739;SDS011;4909;42.680;26.324;2022-10-22T07:05:42;62.13;;;59.60;;
9739;SDS011;4909;42.680;26.324;2022-10-22T07:08:09;75.17;;;72.13;;
9739;SDS011;4909;42.680;26.324;2022-10-22T07:10:36;76.93;;;73.73;;
9739;SDS011;4909;42.680;26.324;2022-10-22T07:13:03;91.07;;;86.73;;
9739;SDS011;4909;42.680;26.324;2022-10-22T07:15:29;97.57;;;94.03;;
9739;SDS011;4909;42.680;26.324;2022-10-22T07:17:56;121.23;;;116.73;;
9739;SDS011;4909;42.680;26.324;2022-10-22T07:20:23;105.60;;;101.53;;
9739;SDS011;4909;42.680;26.324;2022-10-22T07:22:51;103.77;;;99.80;;
9739;SDS011;4909;42.680;26.324;2022-10-22T07:25:18;99.20;;;95.60;;
9739;SDS011;4909;42.680;26.324;2022-10-22T07:27:45;121.03;;;116.63;;
9739;SDS011;4909;42.680;26.324;2022-10-22T07:30:12;130.37;;;126.07;;
9739;SDS011;4909;42.680;26.324;2022-10-22T07:32:39;164.63;;;157.90;;
9739;SDS011;4909;42.680;26.324;2022-10-22T07:35:06;215.77;;;207.70;;
9739;SDS011;4909;42.680;26.324;2022-10-22T07:37:33;209.90;;;202.67;;
9739;SDS011;4909;42.680;26.324;2022-10-22T07:40:01;222.67;;;214.40;;
9739;SDS011;4909;42.680;26.324;2022-10-22T07:42:28;265.80;;;255.93;;
9739;SDS011;4909;42.680;26.324;2022-10-22T07:44:55;285.77;;;274.77;;
9739;SDS011;4909;42.680;26.324;2022-10-22T07:47:22;304.33;;;292.73;;
9739;SDS011;4909;42.680;26.324;2022-10-22T07:49:49;305.53;;;293.87;;
9739;SDS011;4909;42.680;26.324;2022-10-22T07:52:15;320.33;;;308.27;;
9739;SDS011;4909;42.680;26.324;2022-10-22T07:54:42;289.87;;;279.13;;
9739;SDS011;4909;42.680;26.324;2022-10-22T07:57:10;303.10;;;291.80;;
9739;SDS011;4909;42.680;26.324;2022-10-22T07:59:37;315.03;;;302.97;;
9739;SDS011;4909;42.680;26.324;2022-10-22T08:02:04;308.13;;;296.37;;
9739;SDS011;4909;42.680;26.324;2022-10-22T08:04:31;319.67;;;307.57;;
9739;SDS011;4909;42.680;26.324;2022-10-22T08:06:58;335.77;;;323.17;;
9739;SDS011;4909;42.680;26.324;2022-10-22T08:09:26;305.07;;;294.00;;
9739;SDS011;4909;42.680;26.324;2022-10-22T08:11:52;313.67;;;302.10;;
9739;SDS011;4909;42.680;26.324;2022-10-22T08:14:21;307.37;;;295.70;;
9739;SDS011;4909;42.680;26.324;2022-10-22T08:16:48;332.20;;;319.50;;
9739;SDS011;4909;42.680;26.324;2022-10-22T08:19:15;328.83;;;316.40;;
9739;SDS011;4909;42.680;26.324;2022-10-22T08:21:43;344.20;;;330.83;;
9739;SDS011;4909;42.680;26.324;2022-10-22T08:24:10;307.53;;;295.93;;
9739;SDS011;4909;42.680;26.324;2022-10-22T08:26:38;287.53;;;277.07;;
9739;SDS011;4909;42.680;26.324;2022-10-22T08:29:05;289.03;;;278.43;;
9739;SDS011;4909;42.680;26.324;2022-10-22T08:31:34;282.97;;;271.20;;
9739;SDS011;4909;42.680;26.324;2022-10-22T08:34:00;262.17;;;252.60;;
9739;SDS011;4909;42.680;26.324;2022-10-22T08:36:29;246.57;;;237.07;;
9739;SDS011;4909;42.680;26.324;2022-10-22T08:38:56;240.60;;;232.07;;
9739;SDS011;4909;42.680;26.324;2022-10-22T08:41:23;198.63;;;191.13;;
9739;SDS011;4909;42.680;26.324;2022-10-22T08:44:06;151.40;;;145.13;;
9739;SDS011;4909;42.680;26.324;2022-10-22T08:46:54;99.80;;;95.40;;
9739;SDS011;4909;42.680;26.324;2022-10-22T08:49:33;69.93;;;67.07;;
9739;SDS011;4909;42.680;26.324;2022-10-22T08:52:04;60.30;;;57.27;;
9739;SDS011;4909;42.680;26.324;2022-10-22T08:54:32;39.77;;;37.80;;
9739;SDS011;4909;42.680;26.324;2022-10-22T08:57:14;28.30;;;26.17;;
9739;SDS011;4909;42.680;26.324;2022-10-22T08:59:49;20.53;;;18.93;;
9739;SDS011;4909;42.680;26.324;2022-10-22T09:02:29;14.10;;;11.77;;
9739;SDS011;4909;42.680;26.324;2022-10-22T09:05:01;12.10;;;9.37;;
9739;SDS011;4909;42.680;26.324;2022-10-22T09:07:39;14.53;;;9.60;;
9739;SDS011;4909;42.680;26.324;2022-10-22T09:10:08;10.27;;;8.70;;
9739;SDS011;4909;42.680;26.324;2022-10-22T09:12:37;9.70;;;8.83;;
9739;SDS011;4909;42.680;26.324;2022-10-22T09:15:04;13.10;;;11.50;;
9739;SDS011;4909;42.680;26.324;2022-10-22T09:17:33;10.63;;;9.13;;
9739;SDS011;4909;42.680;26.324;2022-10-22T09:20:10;13.77;;;9.73;;
9739;SDS011;4909;42.680;26.324;2022-10-22T09:22:41;10.50;;;7.93;;
9739;SDS011;4909;42.680;26.324;2022-10-22T09:25:18;15.37;;;9.23;;
9739;SDS011;4909;42.680;26.324;2022-10-22T09:27:47;9.90;;;7.63;;
9739;SDS011;4909;42.680;26.324;2022-10-22T09:30:15;9.20;;;7.10;;
9739;SDS011;4909;42.680;26.324;2022-10-22T09:32:44;7.07;;;6.53;;
9739;SDS011;4909;42.680;26.324;2022-10-22T09:35:12;9.20;;;6.90;;
9739;SDS011;4909;42.680;26.324;2022-10-22T09:37:46;10.10;;;6.93;;
9739;SDS011;4909;42.680;26.324;2022-10-22T09:40:14;11.23;;;6.87;;
9739;SDS011;4909;42.680;26.324;2022-10-22T09:42:42;10.97;;;6.50;;
9739;SDS011;4909;42.680;26.324;2022-10-22T09:45:14;9.70;;;6.70;;
9739;SDS011;4909;42.680;26.324;2022-10-22T09:47:46;10.63;;;6.67;;
9739;SDS011;4909;42.680;26.324;2022-10-22T09:50:18;8.17;;;6.80;;
9739;SDS011;4909;42.680;26.324;2022-10-22T09:52:57;14.30;;;8.03;;
9739;SDS011;4909;42.680;26.324;2022-10-22T09:55:26;11.83;;;7.67;;
9739;SDS011;4909;42.680;26.324;2022-10-22T09:57:54;9.33;;;7.43;;
9739;SDS011;4909;42.680;26.324;2022-10-22T10:00:23;12.17;;;7.17;;
9739;SDS011;4909;42.680;26.324;2022-10-22T10:02:56;9.07;;;6.70;;
9739;SDS011;4909;42.680;26.324;2022-10-22T10:05:25;9.50;;;7.33;;
9739;SDS011;4909;42.680;26.324;2022-10-22T10:07:55;12.07;;;7.37;;
9739;SDS011;4909;42.680;26.324;2022-10-22T10:10:27;5.93;;;5.50;;
9739;SDS011;4909;42.680;26.324;2022-10-22T10:13:02;12.87;;;7.53;;
9739;SDS011;4909;42.680;26.324;2022-10-22T10:15:44;14.50;;;7.43;;
9739;SDS011;4909;42.680;26.324;2022-10-22T10:18:24;14.37;;;7.57;;
9739;SDS011;4909;42.680;26.324;2022-10-22T10:21:03;10.70;;;6.90;;
9739;SDS011;4909;42.680;26.324;2022-10-22T10:23:35;11.43;;;7.07;;
9739;SDS011;4909;42.680;26.324;2022-10-22T10:26:11;11.03;;;7.10;;
9739;SDS011;4909;42.680;26.324;2022-10-22T10:28:46;13.73;;;7.70;;
9739;SDS011;4909;42.680;26.324;2022-10-22T10:31:26;10.63;;;7.03;;
9739;SDS011;4909;42.680;26.324;2022-10-22T10:34:06;7.80;;;7.07;;
9739;SDS011;4909;42.680;26.324;2022-10-22T10:36:43;8.67;;;7.33;;
9739;SDS011;4909;42.680;26.324;2022-10-22T10:39:21;9.90;;;7.43;;
9739;SDS011;4909;42.680;26.324;2022-10-22T10:41:55;10.67;;;7.53;;
9739;SDS011;4909;42.680;26.324;2022-10-22T10:44:34;11.73;;;8.77;;
9739;SDS011;4909;42.680;26.324;2022-10-22T10:47:10;9.10;;;7.87;;
9739;SDS011;4909;42.680;26.324;2022-10-22T10:49:47;10.20;;;8.20;;
9739;SDS011;4909;42.680;26.324;2022-10-22T10:52:20;11.37;;;9.80;;
9739;SDS011;4909;42.680;26.324;2022-10-22T10:54:58;8.80;;;8.00;;
9739;SDS011;4909;42.680;26.324;2022-10-22T10:57:38;9.40;;;8.50;;
9739;SDS011;4909;42.680;26.324;2022-10-22T11:00:13;10.97;;;9.40;;
9739;SDS011;4909;42.680;26.324;2022-10-22T11:02:46;9.30;;;8.20;;
9739;SDS011;4909;42.680;26.324;2022-10-22T11:05:31;8.93;;;7.90;;
9739;SDS011;4909;42.680;26.324;2022-10-22T11:08:03;10.90;;;8.10;;
9739;SDS011;4909;42.680;26.324;2022-10-22T11:10:37;9.27;;;8.07;;
9739;SDS011;4909;42.680;26.324;2022-10-22T11:13:07;24.27;;;23.05;;
9739;SDS011;4909;42.680;26.324;2022-10-22T11:15:40;10.03;;;9.03;;
9739;SDS011;4909;42.680;26.324;2022-10-22T11:18:14;15.53;;;9.53;;
9739;SDS011;4909;42.680;26.324;2022-10-22T11:20:49;10.87;;;8.27;;
9739;SDS011;4909;42.680;26.324;2022-10-22T11:23:24;9.00;;;7.57;;
9739;SDS011;4909;42.680;26.324;2022-10-22T11:25:55;7.10;;;6.53;;
9739;SDS011;4909;42.680;26.324;2022-10-22T11:28:23;8.33;;;7.10;;
9739;SDS011;4909;42.680;26.324;2022-10-22T11:30:56;7.47;;;6.50;;
9739;SDS011;4909;42.680;26.324;2022-10-22T11:33:27;8.57;;;7.40;;
9739;SDS011;4909;42.680;26.324;2022-10-22T11:36:03;7.67;;;7.07;;
9739;SDS011;4909;42.680;26.324;2022-10-22T11:38:32;12.80;;;8.10;;
9739;SDS011;4909;42.680;26.324;2022-10-22T11:41:01;11.33;;;8.63;;
9739;SDS011;4909;42.680;26.324;2022-10-22T11:43:32;8.13;;;7.40;;
9739;SDS011;4909;42.680;26.324;2022-10-22T11:46:02;11.53;;;8.17;;
9739;SDS011;4909;42.680;26.324;2022-10-22T11:48:59;8.10;;;7.43;;
9739;SDS011;4909;42.680;26.324;2022-10-22T11:51:30;7.53;;;6.70;;
9739;SDS011;4909;42.680;26.324;2022-10-22T11:54:00;8.20;;;7.43;;
9739;SDS011;4909;42.680;26.324;2022-10-22T11:56:35;10.60;;;7.47;;
9739;SDS011;4909;42.680;26.324;2022-10-22T11:59:04;7.23;;;6.57;;
9739;SDS011;4909;42.680;26.324;2022-10-22T12:01:54;9.13;;;7.40;;
9739;SDS011;4909;42.680;26.324;2022-10-22T12:04:21;9.13;;;7.23;;
9739;SDS011;4909;42.680;26.324;2022-10-22T12:06:52;7.60;;;6.70;;
9739;SDS011;4909;42.680;26.324;2022-10-22T12:09:22;7.93;;;7.13;;
9739;SDS011;4909;42.680;26.324;2022-10-22T12:11:50;7.50;;;6.90;;
9739;SDS011;4909;42.680;26.324;2022-10-22T12:14:18;8.97;;;7.43;;
9739;SDS011;4909;42.680;26.324;2022-10-22T12:16:51;8.77;;;6.53;;
9739;SDS011;4909;42.680;26.324;2022-10-22T12:19:25;11.63;;;7.57;;
9739;SDS011;4909;42.680;26.324;2022-10-22T12:21:56;7.83;;;7.10;;
9739;SDS011;4909;42.680;26.324;2022-10-22T12:24:27;7.00;;;6.33;;
9739;SDS011;4909;42.680;26.324;2022-10-22T12:26:56;7.93;;;7.10;;
9739;SDS011;4909;42.680;26.324;2022-10-22T12:29:23;7.83;;;6.77;;
9739;SDS011;4909;42.680;26.324;2022-10-22T12:31:50;10.47;;;7.60;;
9739;SDS011;4909;42.680;26.324;2022-10-22T12:34:20;7.83;;;7.20;;
9739;SDS011;4909;42.680;26.324;2022-10-22T12:36:49;7.20;;;6.63;;
9739;SDS011;4909;42.680;26.324;2022-10-22T12:39:19;7.43;;;6.83;;
9739;SDS011;4909;42.680;26.324;2022-10-22T12:41:48;7.97;;;7.03;;
9739;SDS011;4909;42.680;26.324;2022-10-22T12:44:15;8.43;;;7.67;;
9739;SDS011;4909;42.680;26.324;2022-10-22T12:46:43;8.87;;;7.97;;
9739;SDS011;4909;42.680;26.324;2022-10-22T12:49:13;9.13;;;8.33;;
9739;SDS011;4909;42.680;26.324;2022-10-22T12:51:44;9.50;;;8.70;;
9739;SDS011;4909;42.680;26.324;2022-10-22T12:54:15;23.60;;;11.87;;
9739;SDS011;4909;42.680;26.324;2022-10-22T12:56:50;8.33;;;7.53;;
9739;SDS011;4909;42.680;26.324;2022-10-22T12:59:19;8.77;;;7.53;;
9739;SDS011;4909;42.680;26.324;2022-10-22T13:01:47;7.47;;;6.77;;
9739;SDS011;4909;42.680;26.324;2022-10-22T13:04:30;7.23;;;6.57;;
9739;SDS011;4909;42.680;26.324;2022-10-22T13:07:12;8.00;;;7.03;;
9739;SDS011;4909;42.680;26.324;2022-10-22T13:09:44;8.17;;;7.40;;
9739;SDS011;4909;42.680;26.324;2022-10-22T13:12:13;9.90;;;7.23;;
9739;SDS011;4909;42.680;26.324;2022-10-22T13:14:43;8.80;;;6.80;;
9739;SDS011;4909;42.680;26.324;2022-10-22T13:17:12;12.07;;;7.70;;
9739;SDS011;4909;42.680;26.324;2022-10-22T13:19:47;9.97;;;6.93;;
9739;SDS011;4909;42.680;26.324;2022-10-22T13:22:26;8.30;;;6.63;;
9739;SDS011;4909;42.680;26.324;2022-10-22T13:24:56;7.33;;;6.57;;
9739;SDS011;4909;42.680;26.324;2022-10-22T13:27:25;8.67;;;6.97;;
9739;SDS011;4909;42.680;26.324;2022-10-22T13:29:53;12.87;;;7.77;;
9739;SDS011;4909;42.680;26.324;2022-10-22T13:32:28;9.93;;;6.70;;
9739;SDS011;4909;42.680;26.324;2022-10-22T13:34:57;9.03;;;6.20;;
9739;SDS011;4909;42.680;26.324;2022-10-22T13:37:25;11.00;;;7.30;;
9739;SDS011;4909;42.680;26.324;2022-10-22T13:39:55;6.93;;;6.27;;
9739;SDS011;4909;42.680;26.324;2022-10-22T13:42:23;8.20;;;7.10;;
9739;SDS011;4909;42.680;26.324;2022-10-22T13:44:50;9.40;;;7.63;;
9739;SDS011;4909;42.680;26.324;2022-10-22T13:47:22;10.33;;;8.23;;
9739;SDS011;4909;42.680;26.324;2022-10-22T13:49:51;8.33;;;6.77;;
9739;SDS011;4909;42.680;26.324;2022-10-22T13:52:26;8.00;;;7.37;;
9739;SDS011;4909;42.680;26.324;2022-10-22T13:55:05;9.13;;;6.90;;
9739;SDS011;4909;42.680;26.324;2022-10-22T13:57:39;13.50;;;8.13;;
9739;SDS011;4909;42.680;26.324;2022-10-22T14:00:07;10.93;;;7.60;;
9739;SDS011;4909;42.680;26.324;2022-10-22T14:02:36;11.67;;;7.23;;
9739;SDS011;4909;42.680;26.324;2022-10-22T14:05:04;6.93;;;6.07;;
9739;SDS011;4909;42.680;26.324;2022-10-22T14:07:33;8.90;;;6.97;;
9739;SDS011;4909;42.680;26.324;2022-10-22T14:10:02;11.30;;;7.43;;
9739;SDS011;4909;42.680;26.324;2022-10-22T14:12:32;7.97;;;6.80;;
9739;SDS011;4909;42.680;26.324;2022-10-22T14:14:58;7.57;;;6.60;;
9739;SDS011;4909;42.680;26.324;2022-10-22T14:17:25;8.10;;;6.73;;
9739;SDS011;4909;42.680;26.324;2022-10-22T14:19:53;11.60;;;7.13;;
9739;SDS011;4909;42.680;26.324;2022-10-22T14:22:19;9.20;;;6.67;;
9739;SDS011;4909;42.680;26.324;2022-10-22T14:24:48;7.17;;;6.23;;
9739;SDS011;4909;42.680;26.324;2022-10-22T14:27:17;8.93;;;6.73;;
9739;SDS011;4909;42.680;26.324;2022-10-22T14:29:44;7.97;;;6.67;;
9739;SDS011;4909;42.680;26.324;2022-10-22T14:32:12;7.03;;;6.40;;
9739;SDS011;4909;42.680;26.324;2022-10-22T14:34:39;7.67;;;5.83;;
9739;SDS011;4909;42.680;26.324;2022-10-22T14:37:12;7.37;;;6.37;;
9739;SDS011;4909;42.680;26.324;2022-10-22T14:39:41;11.93;;;6.80;;
9739;SDS011;4909;42.680;26.324;2022-10-22T14:42:10;9.97;;;7.30;;
9739;SDS011;4909;42.680;26.324;2022-10-22T14:44:39;8.27;;;6.53;;
9739;SDS011;4909;42.680;26.324;2022-10-22T14:47:06;9.63;;;6.50;;
9739;SDS011;4909;42.680;26.324;2022-10-22T14:49:32;5.80;;;5.23;;
9739;SDS011;4909;42.680;26.324;2022-10-22T14:51:59;7.83;;;5.87;;
9739;SDS011;4909;42.680;26.324;2022-10-22T14:54:26;6.83;;;5.67;;
9739;SDS011;4909;42.680;26.324;2022-10-22T14:56:53;8.40;;;5.87;;
9739;SDS011;4909;42.680;26.324;2022-10-22T14:59:20;9.00;;;5.70;;
9739;SDS011;4909;42.680;26.324;2022-10-22T15:01:48;6.77;;;5.50;;
9739;SDS011;4909;42.680;26.324;2022-10-22T15:04:14;9.50;;;6.00;;
9739;SDS011;4909;42.680;26.324;2022-10-22T15:06:41;9.40;;;5.93;;
9739;SDS011;4909;42.680;26.324;2022-10-22T15:09:08;5.73;;;5.17;;
9739;SDS011;4909;42.680;26.324;2022-10-22T15:11:35;9.40;;;5.57;;